Duty — WDD5291 — position and weather

sailwx.info

Track history (hours):
 
Tides and Currents Weather Stations Pressure Air Temp Water Temp Dewpoint Dewpoint Depression Visibility Wind Speed Wind Dir Waves Ship Positions

Duty

Owner: Express Marine Inc., Camden, NJ. More information available from US FCC via Universal Licensing System and Coast Guard Vessel Documentation Center.

Last reported at 2017-Dec-08 06:15 UTC. Time now 2017-Dec-12 20:11 UTC.
Position N 27°05' W 080°02'.

Length 33 m; draft 5.5 m.

Type: Tug. MMSI: 367082000.

Date/timePositionNaut miles runAvg speedWind from/ knotsBaromVisibWave heightAir tempDewpointWater temp
2017-Dec-08 06:15N 27°05' W 080°02'2 9.3
2017-Dec-08 06:00N 27°03' W 080°01'5 9.4
2017-Dec-08 05:30N 26°58' W 079°60'511.0
2017-Dec-08 05:00N 26°53' W 079°58'612.0
2017-Dec-08 04:30N 26°47' W 079°58'611.9
2017-Dec-08 04:00N 26°41' W 079°58'611.2
2017-Dec-08 03:30N 26°35' W 079°59'1110.2
2017-Dec-08 02:27N 26°25' W 080°00'4 9.4
2017-Dec-08 02:00N 26°20' W 080°01'4 8.5
2017-Dec-08 01:29N 26°16' W 080°02'4 7.9
2017-Dec-08 01:00N 26°12' W 080°03'4 7.8
2017-Dec-08 00:30N 26°09' W 080°04'4 8.0
2017-Dec-08 00:00N 26°06' W 080°07'1 1.0
2017-Dec-07 23:30N 26°05' W 080°07'0 0.0
2017-Dec-07 23:00N 26°05' W 080°07'0 0.0
2017-Dec-07 22:30N 26°05' W 080°07'0 0.0
2017-Dec-07 22:00N 26°05' W 080°07'0 0.0
2017-Dec-07 21:27N 26°05' W 080°07'0 0.0
2017-Dec-07 21:00N 26°05' W 080°07'0 0.0
2017-Dec-07 20:30N 26°05' W 080°07'0 0.0
2017-Dec-07 20:00N 26°05' W 080°07'0 0.0
2017-Dec-07 19:30N 26°05' W 080°07'0 0.0
2017-Dec-07 19:00N 26°05' W 080°07'0 0.0
2017-Dec-07 18:30N 26°05' W 080°07'0 0.0
2017-Dec-07 18:00N 26°05' W 080°07'0 0.0
2017-Dec-07 17:30N 26°05' W 080°07'0 0.0
2017-Dec-07 17:00N 26°05' W 080°07'0 0.0
2017-Dec-07 16:30N 26°05' W 080°07'0 0.0
2017-Dec-07 16:00N 26°05' W 080°07'0 0.0
2017-Dec-07 15:30N 26°05' W 080°07'0 0.0
2017-Dec-07 15:00N 26°05' W 080°07'0 0.0
2017-Dec-07 14:30N 26°05' W 080°07'0 0.0
2017-Dec-07 13:51N 26°05' W 080°07'0 0.0
2017-Dec-07 13:21N 26°05' W 080°07'0 0.0
2017-Dec-07 12:51N 26°05' W 080°07'0 0.0
2017-Dec-07 12:24N 26°05' W 080°07'0 0.0
2017-Dec-07 11:54N 26°05' W 080°07'0 0.0
2017-Dec-07 11:24N 26°05' W 080°07'0 0.0
2017-Dec-07 10:54N 26°05' W 080°07'0 0.0
2017-Dec-07 10:21N 26°05' W 080°07'0 0.0
2017-Dec-07 09:54N 26°05' W 080°07'0 0.0
2017-Dec-07 09:27N 26°05' W 080°07'0 0.0
2017-Dec-07 08:57N 26°05' W 080°07'0 0.0
2017-Dec-07 08:27N 26°05' W 080°07'0 0.0
2017-Dec-07 07:57N 26°05' W 080°07'0 0.0
2017-Dec-07 07:27N 26°05' W 080°07'0 0.0
2017-Dec-07 07:00N 26°05' W 080°07'0 0.0
2017-Dec-07 06:27N 26°05' W 080°07'0 0.0
2017-Dec-07 06:00N 26°05' W 080°07'0 0.0
2017-Dec-07 05:30N 26°05' W 080°07'0 0.0
2017-Dec-07 04:45N 26°05' W 080°07'0 0.0
2017-Dec-07 04:30N 26°05' W 080°07'0 0.0
2017-Dec-07 03:57N 26°05' W 080°07'0 0.0
2017-Dec-07 03:30N 26°05' W 080°07'0 0.0
2017-Dec-07 03:00N 26°05' W 080°07'0 0.0
2017-Dec-07 02:30N 26°05' W 080°07'0 0.0
2017-Dec-07 02:00N 26°05' W 080°07'0 0.0
2017-Dec-07 01:30N 26°05' W 080°07'0 0.0
2017-Dec-07 01:00N 26°05' W 080°07'0 0.0
2017-Dec-07 00:30N 26°05' W 080°07'1 1.9
2017-Dec-07 00:00N 26°06' W 080°06'2 3.1
2017-Dec-06 23:26N 26°07' W 080°05'0 0.2
2017-Dec-06 22:59N 26°07' W 080°05'0 0.1
2017-Dec-06 22:29N 26°07' W 080°05'0 0.0
2017-Dec-06 21:59N 26°07' W 080°05'0 0.0
2017-Dec-06 21:29N 26°07' W 080°05'0 0.0
2017-Dec-06 20:59N 26°07' W 080°05'  
2017-Nov-29 00:55N 27°00' W 080°03'4 8.6
2017-Nov-29 00:30N 26°57' W 080°02'4 8.6
2017-Nov-29 00:00N 26°53' W 080°01'5 9.2
2017-Nov-28 23:30N 26°48' W 079°60'5 9.7
2017-Nov-28 23:00N 26°43' W 080°00'5 9.4
2017-Nov-28 22:30N 26°39' W 080°01'5 9.5
2017-Nov-28 22:00N 26°34' W 080°01'5 9.4
2017-Nov-28 21:30N 26°29' W 080°02'5 9.0
2017-Nov-28 20:59N 26°24' W 080°03'4 8.8
2017-Nov-28 20:30N 26°20' W 080°03'4 8.7
2017-Nov-28 20:00N 26°16' W 080°04'4 8.7
2017-Nov-28 19:30N 26°12' W 080°04'4 8.7
2017-Nov-28 19:00N 26°07' W 080°05'3 4.4
2017-Nov-28 18:19N 26°05' W 080°07'0 0.0
2017-Nov-28 17:49N 26°05' W 080°07'0 0.0
2017-Nov-28 17:19N 26°05' W 080°07'0 0.0
2017-Nov-28 16:52N 26°05' W 080°07'0 0.0
2017-Nov-28 16:22N 26°05' W 080°07'0 0.0
2017-Nov-28 15:52N 26°05' W 080°07'0 0.0
2017-Nov-28 14:52N 26°05' W 080°07'0 0.0
2017-Nov-28 14:22N 26°05' W 080°07'0 0.0
2017-Nov-28 13:55N 26°05' W 080°07'0 0.0
2017-Nov-28 13:25N 26°05' W 080°07'0 0.0
2017-Nov-28 12:55N 26°05' W 080°07'0 0.0
2017-Nov-28 12:25N 26°05' W 080°07'0 0.0
2017-Nov-28 11:55N 26°05' W 080°07'0 0.0
2017-Nov-28 11:28N 26°05' W 080°07'0 0.0
2017-Nov-28 10:58N 26°05' W 080°07'0 0.0
2017-Nov-28 10:28N 26°05' W 080°07'0 0.0
2017-Nov-28 09:58N 26°05' W 080°07'0 0.0
2017-Nov-28 09:28N 26°05' W 080°07'0 0.0
2017-Nov-28 08:58N 26°05' W 080°07'0 0.0
2017-Nov-28 08:28N 26°05' W 080°07'0 0.0
2017-Nov-28 07:58N 26°05' W 080°07'0 0.0
2017-Nov-28 07:28N 26°05' W 080°07'0 0.0
2017-Nov-28 06:58N 26°05' W 080°07'0 0.0
2017-Nov-28 06:28N 26°05' W 080°07'  
Track history (hours):
 
Tides and Currents Weather Stations Pressure Air Temp Water Temp Dewpoint Dewpoint Depression Visibility Wind Speed Wind Dir Waves Ship Positions

Duty

Owner: Express Marine Inc., Camden, NJ. More information available from US FCC via Universal Licensing System and Coast Guard Vessel Documentation Center.

Last reported at 2017-Dec-08 06:15 UTC. Time now 2017-Dec-12 20:11 UTC.
Position N 27°05' W 080°02'.

Length 33 m; draft 5.5 m.

Type: Tug. MMSI: 367082000.

Date/timePositionNaut miles runAvg speedWind from/ knotsBaromVisibWave heightAir tempDewpointWater temp
2017-Dec-08 06:15N 27°05' W 080°02'2 9.3
2017-Dec-08 06:00N 27°03' W 080°01'5 9.4
2017-Dec-08 05:30N 26°58' W 079°60'511.0
2017-Dec-08 05:00N 26°53' W 079°58'612.0
2017-Dec-08 04:30N 26°47' W 079°58'611.9
2017-Dec-08 04:00N 26°41' W 079°58'611.2
2017-Dec-08 03:30N 26°35' W 079°59'1110.2
2017-Dec-08 02:27N 26°25' W 080°00'4 9.4
2017-Dec-08 02:00N 26°20' W 080°01'4 8.5
2017-Dec-08 01:29N 26°16' W 080°02'4 7.9
2017-Dec-08 01:00N 26°12' W 080°03'4 7.8
2017-Dec-08 00:30N 26°09' W 080°04'4 8.0
2017-Dec-08 00:00N 26°06' W 080°07'1 1.0
2017-Dec-07 23:30N 26°05' W 080°07'0 0.0
2017-Dec-07 23:00N 26°05' W 080°07'0 0.0
2017-Dec-07 22:30N 26°05' W 080°07'0 0.0
2017-Dec-07 22:00N 26°05' W 080°07'0 0.0
2017-Dec-07 21:27N 26°05' W 080°07'0 0.0
2017-Dec-07 21:00N 26°05' W 080°07'0 0.0
2017-Dec-07 20:30N 26°05' W 080°07'0 0.0
2017-Dec-07 20:00N 26°05' W 080°07'0 0.0
2017-Dec-07 19:30N 26°05' W 080°07'0 0.0
2017-Dec-07 19:00N 26°05' W 080°07'0 0.0
2017-Dec-07 18:30N 26°05' W 080°07'0 0.0
2017-Dec-07 18:00N 26°05' W 080°07'0 0.0
2017-Dec-07 17:30N 26°05' W 080°07'0 0.0
2017-Dec-07 17:00N 26°05' W 080°07'0 0.0
2017-Dec-07 16:30N 26°05' W 080°07'0 0.0
2017-Dec-07 16:00N 26°05' W 080°07'0 0.0
2017-Dec-07 15:30N 26°05' W 080°07'0 0.0
2017-Dec-07 15:00N 26°05' W 080°07'0 0.0
2017-Dec-07 14:30N 26°05' W 080°07'0 0.0
2017-Dec-07 13:51N 26°05' W 080°07'0 0.0
2017-Dec-07 13:21N 26°05' W 080°07'0 0.0
2017-Dec-07 12:51N 26°05' W 080°07'0 0.0
2017-Dec-07 12:24N 26°05' W 080°07'0 0.0
2017-Dec-07 11:54N 26°05' W 080°07'0 0.0
2017-Dec-07 11:24N 26°05' W 080°07'0 0.0
2017-Dec-07 10:54N 26°05' W 080°07'0 0.0
2017-Dec-07 10:21N 26°05' W 080°07'0 0.0
2017-Dec-07 09:54N 26°05' W 080°07'0 0.0
2017-Dec-07 09:27N 26°05' W 080°07'0 0.0
2017-Dec-07 08:57N 26°05' W 080°07'0 0.0
2017-Dec-07 08:27N 26°05' W 080°07'0 0.0
2017-Dec-07 07:57N 26°05' W 080°07'0 0.0
2017-Dec-07 07:27N 26°05' W 080°07'0 0.0
2017-Dec-07 07:00N 26°05' W 080°07'0 0.0
2017-Dec-07 06:27N 26°05' W 080°07'0 0.0
2017-Dec-07 06:00N 26°05' W 080°07'0 0.0
2017-Dec-07 05:30N 26°05' W 080°07'0 0.0
2017-Dec-07 04:45N 26°05' W 080°07'0 0.0
2017-Dec-07 04:30N 26°05' W 080°07'0 0.0
2017-Dec-07 03:57N 26°05' W 080°07'0 0.0
2017-Dec-07 03:30N 26°05' W 080°07'0 0.0
2017-Dec-07 03:00N 26°05' W 080°07'0 0.0
2017-Dec-07 02:30N 26°05' W 080°07'0 0.0
2017-Dec-07 02:00N 26°05' W 080°07'0 0.0
2017-Dec-07 01:30N 26°05' W 080°07'0 0.0
2017-Dec-07 01:00N 26°05' W 080°07'0 0.0
2017-Dec-07 00:30N 26°05' W 080°07'1 1.9
2017-Dec-07 00:00N 26°06' W 080°06'2 3.1
2017-Dec-06 23:26N 26°07' W 080°05'0 0.2
2017-Dec-06 22:59N 26°07' W 080°05'0 0.1
2017-Dec-06 22:29N 26°07' W 080°05'0 0.0
2017-Dec-06 21:59N 26°07' W 080°05'0 0.0
2017-Dec-06 21:29N 26°07' W 080°05'0 0.0
2017-Dec-06 20:59N 26°07' W 080°05'  
2017-Nov-29 00:55N 27°00' W 080°03'4 8.6
2017-Nov-29 00:30N 26°57' W 080°02'4 8.6
2017-Nov-29 00:00N 26°53' W 080°01'5 9.2
2017-Nov-28 23:30N 26°48' W 079°60'5 9.7
2017-Nov-28 23:00N 26°43' W 080°00'5 9.4
2017-Nov-28 22:30N 26°39' W 080°01'5 9.5
2017-Nov-28 22:00N 26°34' W 080°01'5 9.4
2017-Nov-28 21:30N 26°29' W 080°02'5 9.0
2017-Nov-28 20:59N 26°24' W 080°03'4 8.8
2017-Nov-28 20:30N 26°20' W 080°03'4 8.7
2017-Nov-28 20:00N 26°16' W 080°04'4 8.7
2017-Nov-28 19:30N 26°12' W 080°04'4 8.7
2017-Nov-28 19:00N 26°07' W 080°05'3 4.4
2017-Nov-28 18:19N 26°05' W 080°07'0 0.0
2017-Nov-28 17:49N 26°05' W 080°07'0 0.0
2017-Nov-28 17:19N 26°05' W 080°07'0 0.0
2017-Nov-28 16:52N 26°05' W 080°07'0 0.0
2017-Nov-28 16:22N 26°05' W 080°07'0 0.0
2017-Nov-28 15:52N 26°05' W 080°07'0 0.0
2017-Nov-28 14:52N 26°05' W 080°07'0 0.0
2017-Nov-28 14:22N 26°05' W 080°07'0 0.0
2017-Nov-28 13:55N 26°05' W 080°07'0 0.0
2017-Nov-28 13:25N 26°05' W 080°07'0 0.0
2017-Nov-28 12:55N 26°05' W 080°07'0 0.0
2017-Nov-28 12:25N 26°05' W 080°07'0 0.0
2017-Nov-28 11:55N 26°05' W 080°07'0 0.0
2017-Nov-28 11:28N 26°05' W 080°07'0 0.0
2017-Nov-28 10:58N 26°05' W 080°07'0 0.0
2017-Nov-28 10:28N 26°05' W 080°07'0 0.0
2017-Nov-28 09:58N 26°05' W 080°07'0 0.0
2017-Nov-28 09:28N 26°05' W 080°07'0 0.0
2017-Nov-28 08:58N 26°05' W 080°07'0 0.0
2017-Nov-28 08:28N 26°05' W 080°07'0 0.0
2017-Nov-28 07:58N 26°05' W 080°07'0 0.0
2017-Nov-28 07:28N 26°05' W 080°07'0 0.0
2017-Nov-28 06:58N 26°05' W 080°07'0 0.0
2017-Nov-28 06:28N 26°05' W 080°07'  

Dump ship's entire track history